メインページ
METAR-TAF:

METAR-TAF

空港 :

ダウンタウン・マンハッタン・ヘリポート

ニューヨーク, ニューヨーク, アメリカ合衆国

緯度: 40-42-04N, 経度: 074-00-32W, 海抜: 2m

現時点の気象観測

当レポートは51分前の17:56(UTC)に作成
西の風 6kt
気温 22°C
湿度 69%
気圧 1023 hPa
視程: 16.1km
晴天

METAR: KJRB 261756Z AUTO 27006KT 10SM CLR 22/16 A3022 RMK AO2 SLP232 T02220161 10222 20156 58010

時間: 14:47 (18:47 UTC)


TAF: 見つかりません

4,000以上の空港の気象観測と天気予報(METAR報とTAF報)

利用可能な観測所は地図上に黄色い丸と赤い丸で示す。

丸の上にカーソルを重ねると観測所名を参照できる。

次にクリックすると気象観測と天気予報を参照できる。

マップの切り替え:黒色「×」印の緑ボタンをクリックして拡大、「-」印の緑ボタンをクリックして縮小、緑色の三角印をクリックして隣りの地図に切り替え


METAR-TAF: